Time;durP1;ratioP1;P1;durP2;ratioP2;P2;SDS_P1;SDS_P2;PMS_P1;PMS_P2;Temp;Humidity;BMP_temperature;BMP_pressure;BME280_temperature;BME280_humidity;BME280_pressure;Samples;Min_cycle;Max_cycle;Signal;HPM_P1;HPM_P2
2024/01/06 00:00:34;;;;;;;12.50;8.57;;;2.50;99.90;;;;;;5014956;28;20076;-65
2024/01/06 00:03:00;;;;;;;12.50;7.85;;;2.50;99.90;;;;;;5010164;28;20128;-65
2024/01/06 00:05:26;;;;;;;11.85;7.60;;;2.40;99.90;;;;;;5010197;28;20550;-65
2024/01/06 00:07:52;;;;;;;14.35;7.85;;;2.40;99.90;;;;;;5031620;28;20133;-65
2024/01/06 00:10:18;;;;;;;12.70;8.23;;;2.40;99.90;;;;;;5015178;28;20037;-65
2024/01/06 00:12:44;;;;;;;14.30;7.97;;;2.40;99.90;;;;;;5031569;28;20057;-65
2024/01/06 00:15:10;;;;;;;11.93;7.85;;;2.40;99.90;;;;;;5014562;28;20486;-66
2024/01/06 00:17:36;;;;;;;11.05;7.05;;;2.40;99.90;;;;;;5033282;28;20046;-65
2024/01/06 00:20:02;;;;;;;11.77;6.78;;;2.40;99.90;;;;;;5034926;28;20037;-67
2024/01/06 00:22:28;;;;;;;11.02;6.95;;;2.40;99.90;;;;;;5024628;28;20482;-65
2024/01/06 00:24:53;;;;;;;12.02;6.95;;;2.40;99.90;;;;;;5014992;28;20040;-65
2024/01/06 00:27:19;;;;;;;12.50;6.90;;;2.40;99.90;;;;;;5031329;28;20041;-65
2024/01/06 00:29:45;;;;;;;13.95;7.43;;;2.40;99.90;;;;;;5030823;28;20383;-65
2024/01/06 00:32:11;;;;;;;13.05;7.40;;;2.30;99.90;;;;;;5015182;28;20037;-65
2024/01/06 00:34:37;;;;;;;11.90;6.88;;;2.30;99.90;;;;;;5015084;28;20530;-66
2024/01/06 00:37:03;;;;;;;11.63;7.75;;;2.40;99.90;;;;;;4998114;28;20075;-65
2024/01/06 00:39:28;;;;;;;12.73;7.57;;;2.40;99.90;;;;;;5014543;28;20099;-65
2024/01/06 00:41:54;;;;;;;11.57;6.82;;;2.40;99.90;;;;;;4998188;28;20038;-65
2024/01/06 00:44:20;;;;;;;11.18;7.03;;;2.40;99.90;;;;;;5030676;28;20048;-65
2024/01/06 00:46:45;;;;;;;10.10;6.47;;;2.40;99.90;;;;;;5031178;28;20044;-65
2024/01/06 00:49:11;;;;;;;12.45;7.07;;;2.40;99.90;;;;;;5030667;28;20072;-65
2024/01/06 00:51:37;;;;;;;14.85;7.68;;;2.40;99.90;;;;;;5014007;28;20049;-65
2024/01/06 00:54:02;;;;;;;14.25;7.22;;;2.40;99.90;;;;;;5014724;28;20041;-66
2024/01/06 00:56:28;;;;;;;11.95;7.72;;;2.40;99.90;;;;;;4997293;28;20044;-66
2024/01/06 00:58:54;;;;;;;12.35;7.57;;;2.40;99.90;;;;;;5014413;28;20098;-66
2024/01/06 01:01:21;;;;;;;11.63;7.13;;;2.40;99.90;;;;;;5014416;28;20041;-65
2024/01/06 01:03:47;;;;;;;12.63;7.55;;;2.40;99.90;;;;;;5024263;28;20934;-66
2024/01/06 01:06:12;;;;;;;13.20;7.70;;;2.40;99.90;;;;;;5034141;28;20448;-66
2024/01/06 01:08:38;;;;;;;14.57;7.25;;;2.40;99.90;;;;;;5050452;28;20045;-66
2024/01/06 01:11:04;;;;;;;11.00;6.20;;;2.40;99.90;;;;;;5047713;28;20041;-66
2024/01/06 01:13:29;;;;;;;13.18;7.70;;;2.40;99.90;;;;;;5030472;28;20041;-65
2024/01/06 01:15:55;;;;;;;11.43;6.60;;;2.40;99.90;;;;;;5050231;28;20110;-65
2024/01/06 01:18:21;;;;;;;10.88;6.22;;;2.40;99.90;;;;;;5010526;28;20041;-66
2024/01/06 01:20:47;;;;;;;11.50;7.07;;;2.30;99.90;;;;;;5026739;28;20474;-65
2024/01/06 01:23:12;;;;;;;10.43;7.38;;;2.40;99.90;;;;;;5033472;28;20045;-65
2024/01/06 01:25:38;;;;;;;11.93;6.40;;;2.40;99.90;;;;;;5050064;28;20056;-65
2024/01/06 01:28:04;;;;;;;12.40;6.53;;;2.40;99.90;;;;;;5035974;28;20059;-65
2024/01/06 01:30:30;;;;;;;13.95;6.13;;;2.40;99.90;;;;;;5049964;28;20040;-66
2024/01/06 01:32:55;;;;;;;10.82;7.07;;;2.30;99.90;;;;;;5030284;28;20140;-66
2024/01/06 01:35:21;;;;;;;12.13;7.20;;;2.40;99.90;;;;;;5014147;28;20041;-66
2024/01/06 01:37:47;;;;;;;10.40;6.45;;;2.40;99.90;;;;;;5013561;28;20509;-65
2024/01/06 01:40:12;;;;;;;11.25;6.80;;;2.40;99.90;;;;;;5013403;28;20045;-66
2024/01/06 01:42:38;;;;;;;10.43;6.80;;;2.40;99.90;;;;;;5013798;28;20073;-66
2024/01/06 01:45:05;;;;;;;11.10;6.35;;;2.40;99.90;;;;;;5013746;28;20049;-66
2024/01/06 01:47:30;;;;;;;10.52;6.18;;;2.40;99.90;;;;;;5013141;28;20037;-66
2024/01/06 01:49:57;;;;;;;12.73;7.47;;;2.40;99.90;;;;;;5031982;28;20082;-66
2024/01/06 01:52:23;;;;;;;11.05;5.97;;;2.40;99.90;;;;;;5051105;28;20037;-66
2024/01/06 01:54:49;;;;;;;16.23;7.82;;;2.40;99.90;;;;;;5032781;28;20122;-65
2024/01/06 01:57:16;;;;;;;12.25;6.95;;;2.40;99.90;;;;;;5049833;28;20037;-66
2024/01/06 01:59:42;;;;;;;13.70;6.95;;;2.40;99.90;;;;;;5016542;28;20494;-66
2024/01/06 02:02:08;;;;;;;11.15;7.00;;;2.40;99.90;;;;;;5033539;28;20094;-66
2024/01/06 02:04:34;;;;;;;13.32;7.45;;;2.40;99.90;;;;;;5036901;28;20061;-65
2024/01/06 02:07:00;;;;;;;12.00;6.60;;;2.50;99.90;;;;;;5033240;28;20481;-65
2024/01/06 02:09:29;;;;;;;19.20;8.30;;;2.50;99.90;;;;;;5033557;28;20083;-65
2024/01/06 02:11:57;;;;;;;14.20;8.10;;;2.50;99.90;;;;;;5033135;28;20047;-65
2024/01/06 02:14:22;;;;;;;15.95;8.85;;;2.50;99.90;;;;;;5032672;28;20037;-65
2024/01/06 02:16:48;;;;;;;14.32;8.55;;;2.50;99.90;;;;;;5049656;28;20095;-66
2024/01/06 02:19:17;;;;;;;16.35;8.57;;;2.50;99.90;;;;;;5049240;28;20120;-65
2024/01/06 02:21:44;;;;;;;13.52;8.27;;;2.50;99.90;;;;;;5016116;28;20041;-65
2024/01/06 02:24:10;;;;;;;14.65;8.80;;;2.50;99.90;;;;;;5033203;28;20055;-65
2024/01/06 02:26:36;;;;;;;14.50;8.07;;;2.50;99.90;;;;;;5016577;28;20052;-65
2024/01/06 02:29:01;;;;;;;13.50;8.80;;;2.50;99.90;;;;;;5035132;28;20041;-66
2024/01/06 02:31:28;;;;;;;14.13;8.68;;;2.50;99.90;;;;;;5054835;28;20398;-66
2024/01/06 02:33:53;;;;;;;17.05;8.80;;;2.50;99.90;;;;;;5054172;28;20036;-65
2024/01/06 02:36:19;;;;;;;15.80;8.75;;;2.50;99.90;;;;;;5036717;28;20045;-65
2024/01/06 02:38:45;;;;;;;14.98;8.57;;;2.60;99.90;;;;;;5031969;28;20026;-65
2024/01/06 02:41:10;;;;;;;16.73;8.70;;;2.50;99.90;;;;;;5036751;28;20063;-66
2024/01/06 02:43:36;;;;;;;18.23;8.85;;;2.50;99.90;;;;;;5052839;28;20045;-65
2024/01/06 02:46:02;;;;;;;15.90;8.35;;;2.50;99.90;;;;;;5030083;28;20044;-66
2024/01/06 02:48:30;;;;;;;13.95;8.50;;;2.50;99.90;;;;;;5022616;28;20502;-66
2024/01/06 02:50:56;;;;;;;13.15;8.07;;;2.50;99.90;;;;;;5036460;28;20077;-65
2024/01/06 02:53:21;;;;;;;31.92;9.65;;;2.50;99.90;;;;;;5036406;28;20061;-65
2024/01/06 02:55:47;;;;;;;14.63;8.70;;;2.50;99.90;;;;;;5036568;28;20437;-65
2024/01/06 02:58:13;;;;;;;10.98;6.75;;;2.50;99.90;;;;;;5036197;28;20389;-65
2024/01/06 03:00:38;;;;;;;15.20;7.78;;;2.50;99.90;;;;;;5036273;28;20524;-65
2024/01/06 03:03:04;;;;;;;13.07;8.13;;;2.50;99.90;;;;;;5036123;28;20037;-65
2024/01/06 03:05:31;;;;;;;15.05;7.18;;;2.50;99.90;;;;;;5035881;28;20190;-65
2024/01/06 03:07:57;;;;;;;13.98;7.90;;;2.40;99.90;;;;;;5019923;28;20045;-65
2024/01/06 03:10:22;;;;;;;12.05;7.47;;;2.50;99.90;;;;;;5035701;28;20537;-66
2024/01/06 03:12:48;;;;;;;12.40;7.22;;;2.40;99.90;;;;;;5019390;28;20080;-65
2024/01/06 03:15:14;;;;;;;12.95;7.45;;;2.40;99.90;;;;;;5018138;28;20037;-66
2024/01/06 03:17:39;;;;;;;14.35;7.22;;;2.40;99.90;;;;;;4999498;28;20472;-65
2024/01/06 03:20:07;;;;;;;13.70;7.40;;;2.40;99.90;;;;;;5033657;28;20044;-65
2024/01/06 03:22:33;;;;;;;16.27;8.40;;;2.40;99.90;;;;;;5036069;28;20045;-65
2024/01/06 03:24:58;;;;;;;14.68;7.20;;;2.40;99.90;;;;;;5035970;28;20509;-65
2024/01/06 03:27:24;;;;;;;16.13;8.38;;;2.40;99.90;;;;;;5012438;28;20041;-66
2024/01/06 03:29:50;;;;;;;13.70;7.50;;;2.40;99.90;;;;;;5015907;28;20568;-65
2024/01/06 03:32:15;;;;;;;12.13;7.25;;;2.40;99.90;;;;;;5015657;28;20372;-65
2024/01/06 03:34:41;;;;;;;12.52;7.25;;;2.40;99.90;;;;;;5029216;28;20094;-65
2024/01/06 03:37:07;;;;;;;13.38;6.60;;;2.40;99.90;;;;;;5035808;28;20043;-65
2024/01/06 03:39:33;;;;;;;13.85;7.53;;;2.40;99.90;;;;;;5053306;28;20037;-65
2024/01/06 03:42:04;;;;;;;12.80;7.68;;;2.40;99.90;;;;;;5052654;28;20041;-65
2024/01/06 03:44:31;;;;;;;13.43;7.28;;;2.40;99.90;;;;;;5018819;28;20525;-65
2024/01/06 03:46:57;;;;;;;15.30;7.63;;;2.40;99.90;;;;;;5034717;28;20049;-65
2024/01/06 03:49:24;;;;;;;10.93;7.07;;;2.40;99.90;;;;;;5035800;28;20513;-65
2024/01/06 03:51:49;;;;;;;12.40;7.35;;;2.40;99.90;;;;;;5044989;28;20098;-65
2024/01/06 03:54:15;;;;;;;14.40;7.25;;;2.40;99.90;;;;;;5051580;28;20041;-65
2024/01/06 03:56:41;;;;;;;11.80;6.35;;;2.40;99.90;;;;;;5053248;28;20062;-65
2024/01/06 03:59:07;;;;;;;14.70;7.03;;;2.40;99.90;;;;;;5035893;28;20044;-65
2024/01/06 04:01:35;;;;;;;15.23;7.95;;;2.50;99.90;;;;;;5034840;28;20056;-65
2024/01/06 04:04:03;;;;;;;17.13;7.82;;;2.40;99.90;;;;;;5018675;28;20529;-65
2024/01/06 04:06:29;;;;;;;12.60;6.63;;;2.40;99.90;;;;;;5018666;28;20121;-65
2024/01/06 04:08:55;;;;;;;12.70;6.70;;;2.50;99.90;;;;;;5053123;28;20033;-65
2024/01/06 04:11:21;;;;;;;11.30;6.93;;;2.40;99.90;;;;;;5035143;28;20143;-65
2024/01/06 04:13:47;;;;;;;11.68;6.88;;;2.40;99.90;;;;;;5034519;28;20059;-65
2024/01/06 04:16:12;;;;;;;13.82;7.70;;;2.50;99.90;;;;;;5044355;28;20553;-66
2024/01/06 04:18:38;;;;;;;14.57;7.97;;;2.40;99.90;;;;;;5015211;28;20533;-65
2024/01/06 04:21:04;;;;;;;12.55;6.38;;;2.40;99.90;;;;;;5015131;28;20451;-65
2024/01/06 04:23:30;;;;;;;14.70;7.05;;;2.40;99.90;;;;;;5015092;28;20048;-65
2024/01/06 04:25:56;;;;;;;11.38;6.57;;;2.40;99.90;;;;;;5033073;28;20402;-65
2024/01/06 04:28:22;;;;;;;14.20;7.25;;;2.40;99.90;;;;;;5014922;28;20045;-65
2024/01/06 04:30:48;;;;;;;13.38;7.82;;;2.40;99.90;;;;;;5029338;28;20486;-65
2024/01/06 04:33:13;;;;;;;14.73;8.00;;;2.40;99.90;;;;;;5017978;28;20077;-65
2024/01/06 04:35:39;;;;;;;30.90;15.48;;;2.40;99.90;;;;;;5034343;28;20083;-65
2024/01/06 04:38:05;;;;;;;34.50;16.13;;;2.40;99.90;;;;;;5051542;28;20047;-65
2024/01/06 04:40:30;;;;;;;45.58;20.42;;;2.50;99.90;;;;;;5034065;28;20051;-65
2024/01/06 04:42:56;;;;;;;31.23;15.02;;;2.40;99.90;;;;;;5050547;28;20040;-65
2024/01/06 04:45:23;;;;;;;19.40;8.57;;;2.40;99.90;;;;;;5032794;28;20033;-65
2024/01/06 04:47:50;;;;;;;22.50;11.15;;;2.40;99.90;;;;;;5014156;28;20081;-65
2024/01/06 04:50:15;;;;;;;67.80;31.88;;;2.40;99.90;;;;;;5013998;28;20083;-65
2024/01/06 04:52:41;;;;;;;20.33;11.18;;;2.50;99.90;;;;;;5013865;28;20493;-65
2024/01/06 04:55:08;;;;;;;35.35;18.02;;;2.50;99.90;;;;;;5014935;28;20056;-65
2024/01/06 04:57:33;;;;;;;41.92;18.67;;;2.50;99.90;;;;;;5014194;28;20037;-65
2024/01/06 04:59:59;;;;;;;62.55;27.67;;;2.50;99.90;;;;;;5023740;28;20108;-65
2024/01/06 05:02:25;;;;;;;31.00;16.83;;;2.50;99.90;;;;;;5033873;28;20066;-65
2024/01/06 05:04:51;;;;;;;12.30;7.13;;;2.50;99.90;;;;;;5051357;28;20068;-65
2024/01/06 05:07:17;;;;;;;47.40;25.85;;;2.50;99.90;;;;;;5033771;28;20053;-65
2024/01/06 05:09:42;;;;;;;39.08;18.15;;;2.50;99.90;;;;;;5024671;28;20037;-65
2024/01/06 05:12:08;;;;;;;19.00;9.63;;;2.50;99.90;;;;;;5032983;28;20095;-65
2024/01/06 05:14:34;;;;;;;17.38;6.82;;;2.60;99.90;;;;;;5017358;28;20049;-65
2024/01/06 05:16:59;;;;;;;14.50;7.03;;;2.60;99.90;;;;;;5033163;28;20456;-65
2024/01/06 05:19:25;;;;;;;14.95;7.78;;;2.50;99.90;;;;;;5034317;28;20084;-65
2024/01/06 05:21:51;;;;;;;14.48;8.20;;;2.60;99.90;;;;;;5051600;28;20033;-65
2024/01/06 05:24:17;;;;;;;13.63;7.90;;;2.60;99.90;;;;;;5033278;28;20075;-65
2024/01/06 05:26:43;;;;;;;23.33;11.20;;;2.60;99.90;;;;;;5033599;28;20060;-65
2024/01/06 05:29:09;;;;;;;19.13;10.57;;;2.60;99.90;;;;;;5050027;28;20045;-65
2024/01/06 05:31:34;;;;;;;15.05;8.02;;;2.60;99.90;;;;;;5004287;28;20041;-65
2024/01/06 05:34:00;;;;;;;13.68;7.97;;;2.60;99.90;;;;;;5021729;28;20050;-65
2024/01/06 05:36:25;;;;;;;12.02;7.53;;;2.60;99.90;;;;;;5013806;28;20103;-66
2024/01/06 05:38:51;;;;;;;10.38;6.78;;;2.60;99.90;;;;;;5013795;28;20387;-66
2024/01/06 05:41:17;;;;;;;13.55;7.03;;;2.60;99.90;;;;;;5013709;28;20490;-65
2024/01/06 05:43:42;;;;;;;19.40;7.45;;;2.60;99.90;;;;;;4997357;28;20045;-65
2024/01/06 05:46:10;;;;;;;12.57;7.13;;;2.60;99.90;;;;;;5013215;28;20041;-65
2024/01/06 05:48:36;;;;;;;27.10;13.48;;;2.60;99.90;;;;;;4997540;28;20045;-65
2024/01/06 05:51:03;;;;;;;15.48;7.70;;;2.60;99.90;;;;;;5023688;28;20041;-65
2024/01/06 05:53:29;;;;;;;12.40;7.63;;;2.60;99.90;;;;;;5032977;28;20116;-65
2024/01/06 05:55:55;;;;;;;15.85;8.27;;;2.70;99.90;;;;;;5050345;28;20069;-65
2024/01/06 05:58:21;;;;;;;20.67;8.77;;;2.60;99.90;;;;;;5049903;28;20545;-65
2024/01/06 06:00:47;;;;;;;18.23;11.02;;;2.60;99.90;;;;;;5030778;28;20041;-65
2024/01/06 06:03:12;;;;;;;15.18;9.40;;;2.60;99.90;;;;;;5052203;28;20094;-65
2024/01/06 06:05:38;;;;;;;16.80;9.68;;;2.70;99.90;;;;;;5004368;28;20137;-65
2024/01/06 06:08:04;;;;;;;15.32;11.45;;;2.70;99.90;;;;;;4997984;28;20115;-65
2024/01/06 06:10:40;;;;;;;17.65;11.43;;;2.70;99.90;;;;;;5013901;28;20119;-65
2024/01/06 06:13:07;;;;;;;13.27;7.97;;;2.70;99.90;;;;;;4997534;28;20050;-65
2024/01/06 06:15:32;;;;;;;12.45;7.47;;;2.70;99.90;;;;;;5015218;28;20505;-65
2024/01/06 06:18:01;;;;;;;9.73;5.45;;;2.70;99.90;;;;;;4997983;28;20041;-65
2024/01/06 06:20:27;;;;;;;10.63;5.95;;;2.70;99.90;;;;;;5009035;28;20052;-65
2024/01/06 06:22:52;;;;;;;12.68;7.50;;;2.70;99.90;;;;;;5000994;28;20121;-65
2024/01/06 06:25:18;;;;;;;15.27;6.90;;;2.70;99.90;;;;;;5000968;28;20460;-65
2024/01/06 06:27:43;;;;;;;10.98;6.43;;;2.70;99.90;;;;;;5016760;28;20041;-65
2024/01/06 06:30:09;;;;;;;13.65;7.85;;;2.70;99.90;;;;;;5035167;28;20121;-65
2024/01/06 06:32:35;;;;;;;11.48;6.90;;;2.70;99.90;;;;;;4998655;28;20044;-65
2024/01/06 06:35:01;;;;;;;15.00;8.05;;;2.70;99.90;;;;;;4997291;28;20046;-65
2024/01/06 06:37:27;;;;;;;17.33;7.72;;;2.70;99.90;;;;;;5002007;28;20041;-65
2024/01/06 06:39:52;;;;;;;12.63;7.18;;;2.70;99.90;;;;;;5013052;28;20122;-65
2024/01/06 06:42:18;;;;;;;19.67;12.52;;;2.70;99.90;;;;;;5014593;28;20046;-65
2024/01/06 06:44:44;;;;;;;18.50;9.00;;;2.80;99.90;;;;;;4981131;28;20080;-65
2024/01/06 06:47:09;;;;;;;10.90;7.07;;;2.80;99.90;;;;;;4997030;28;20042;-65
2024/01/06 06:49:35;;;;;;;15.23;8.10;;;2.80;99.90;;;;;;4997115;28;20459;-65
2024/01/06 06:52:02;;;;;;;19.02;11.68;;;2.80;99.90;;;;;;5007952;28;20116;-65
2024/01/06 06:54:28;;;;;;;13.85;7.28;;;2.80;99.90;;;;;;5016456;28;20060;-65
2024/01/06 06:56:54;;;;;;;15.68;8.15;;;2.80;99.90;;;;;;5016161;28;20048;-65
2024/01/06 06:59:20;;;;;;;12.20;6.40;;;2.80;99.90;;;;;;5016296;28;20033;-65
2024/01/06 07:01:45;;;;;;;11.10;7.00;;;2.80;99.90;;;;;;5006475;28;20065;-65
2024/01/06 07:04:11;;;;;;;13.32;7.07;;;2.80;99.90;;;;;;5000231;28;20124;-65
2024/01/06 07:06:37;;;;;;;14.43;8.07;;;2.80;99.90;;;;;;5016903;28;20057;-65
2024/01/06 07:09:04;;;;;;;16.55;7.32;;;2.80;99.90;;;;;;5027885;28;20459;-65
2024/01/06 07:11:30;;;;;;;15.50;8.15;;;2.80;99.90;;;;;;5019078;28;20052;-65
2024/01/06 07:13:56;;;;;;;18.40;8.13;;;2.80;99.90;;;;;;5036020;28;20045;-65
2024/01/06 07:16:21;;;;;;;11.73;6.63;;;2.90;99.90;;;;;;5019449;28;20045;-65
2024/01/06 07:18:47;;;;;;;13.27;6.63;;;2.90;99.90;;;;;;5036048;28;20567;-65
2024/01/06 07:21:13;;;;;;;12.73;7.85;;;2.90;99.90;;;;;;5035866;28;20037;-65
2024/01/06 07:23:39;;;;;;;16.02;6.80;;;2.90;99.90;;;;;;5035646;28;20053;-65
2024/01/06 07:26:05;;;;;;;12.00;6.28;;;2.90;99.90;;;;;;5035975;28;20045;-65
2024/01/06 07:28:31;;;;;;;12.20;8.00;;;2.90;99.90;;;;;;5052280;28;20115;-65
2024/01/06 07:30:56;;;;;;;12.93;7.18;;;2.90;99.90;;;;;;5050632;28;20075;-65
2024/01/06 07:33:22;;;;;;;14.52;8.13;;;3.00;99.90;;;;;;5031520;28;20044;-65
2024/01/06 07:35:48;;;;;;;12.13;6.63;;;3.00;99.90;;;;;;5028917;28;20044;-65
2024/01/06 07:38:13;;;;;;;11.90;6.75;;;3.00;99.90;;;;;;5050523;28;20127;-65
2024/01/06 07:40:40;;;;;;;14.07;6.88;;;2.90;99.90;;;;;;5018806;28;20497;-65
2024/01/06 07:43:06;;;;;;;11.93;6.88;;;3.00;99.90;;;;;;5027369;28;20042;-65
2024/01/06 07:45:32;;;;;;;14.43;7.53;;;3.00;99.90;;;;;;5019148;28;20041;-65
2024/01/06 07:48:01;;;;;;;14.73;8.07;;;3.00;99.90;;;;;;5016035;28;20403;-65
2024/01/06 07:50:27;;;;;;;16.75;7.38;;;3.00;99.90;;;;;;5025469;28;20037;-65
2024/01/06 07:52:54;;;;;;;15.52;6.88;;;3.00;99.90;;;;;;5034974;28;20072;-65
2024/01/06 07:55:20;;;;;;;13.07;7.93;;;3.00;99.90;;;;;;5035340;28;20049;-65
2024/01/06 07:57:45;;;;;;;11.30;6.40;;;3.00;99.90;;;;;;5035472;28;20367;-65
2024/01/06 08:00:15;;;;;;;15.52;6.68;;;3.00;99.90;;;;;;5034811;28;20066;-65
2024/01/06 08:02:41;;;;;;;12.98;6.93;;;2.90;99.90;;;;;;5031390;28;20120;-65
2024/01/06 08:05:07;;;;;;;11.75;6.47;;;3.00;99.90;;;;;;5006654;28;20555;-66
2024/01/06 08:07:33;;;;;;;11.25;6.25;;;3.00;99.90;;;;;;5006800;28;20465;-66
2024/01/06 08:09:59;;;;;;;11.52;6.82;;;3.00;99.90;;;;;;4998709;28;20081;-65
2024/01/06 08:12:25;;;;;;;11.07;6.82;;;2.90;99.90;;;;;;4977265;28;20081;-65
2024/01/06 08:14:50;;;;;;;12.60;7.13;;;2.90;99.90;;;;;;4992898;28;20046;-65
2024/01/06 08:17:16;;;;;;;14.32;8.38;;;3.00;99.90;;;;;;5010741;28;20048;-65
2024/01/06 08:19:42;;;;;;;15.90;7.55;;;2.90;99.90;;;;;;5010278;28;20109;-65
2024/01/06 08:22:07;;;;;;;14.70;7.05;;;3.00;99.90;;;;;;4993306;28;20497;-65
2024/01/06 08:24:33;;;;;;;10.93;6.68;;;2.90;99.90;;;;;;4976837;28;20129;-65
2024/01/06 08:26:59;;;;;;;15.82;7.65;;;2.90;99.90;;;;;;4992508;28;20085;-65
2024/01/06 08:29:25;;;;;;;14.98;9.35;;;2.90;99.90;;;;;;4985733;28;20502;-65
2024/01/06 08:31:52;;;;;;;13.10;6.82;;;2.80;99.90;;;;;;5007432;28;20147;-65
2024/01/06 08:34:18;;;;;;;12.88;7.82;;;2.80;99.90;;;;;;5000226;28;20058;-65
2024/01/06 08:36:44;;;;;;;13.27;7.50;;;2.80;99.90;;;;;;4995445;28;20516;-66
2024/01/06 08:39:10;;;;;;;14.95;7.70;;;2.80;99.90;;;;;;5008149;28;20041;-66
2024/01/06 08:41:35;;;;;;;16.40;8.10;;;2.80;99.90;;;;;;5011000;28;20047;-66
2024/01/06 08:44:01;;;;;;;14.18;7.95;;;2.80;99.90;;;;;;5011591;28;20157;-66
2024/01/06 08:46:26;;;;;;;22.15;12.00;;;2.80;99.90;;;;;;5011527;28;20402;-66
2024/01/06 08:48:52;;;;;;;29.38;14.95;;;2.80;99.90;;;;;;5009145;28;20546;-66
2024/01/06 08:51:20;;;;;;;32.15;15.50;;;2.80;99.90;;;;;;5011205;28;20051;-66
2024/01/06 08:53:46;;;;;;;17.85;11.05;;;2.80;99.90;;;;;;5010853;28;20041;-66
2024/01/06 08:56:11;;;;;;;24.45;12.45;;;2.80;99.90;;;;;;4999947;28;20045;-66
2024/01/06 08:58:37;;;;;;;52.42;22.33;;;2.80;99.90;;;;;;5002686;28;20106;-67
2024/01/06 09:01:03;;;;;;;37.88;16.48;;;2.80;99.90;;;;;;4993990;28;20057;-66
2024/01/06 09:03:28;;;;;;;23.58;14.57;;;2.80;99.90;;;;;;5010469;28;20100;-67
2024/01/06 09:05:57;;;;;;;17.05;9.80;;;2.80;99.90;;;;;;5025407;28;20065;-67
2024/01/06 09:08:24;;;;;;;16.05;9.40;;;2.80;99.90;;;;;;5030751;28;20055;-67
2024/01/06 09:10:51;;;;;;;15.32;8.55;;;2.90;99.90;;;;;;5017667;28;20048;-67
2024/01/06 09:13:18;;;;;;;20.58;12.65;;;2.90;99.90;;;;;;5031290;28;20667;-67
2024/01/06 09:15:43;;;;;;;31.35;18.05;;;2.90;99.90;;;;;;5025710;28;20043;-67
2024/01/06 09:18:09;;;;;;;17.40;9.88;;;2.90;99.90;;;;;;5028410;28;20037;-66
2024/01/06 09:20:35;;;;;;;16.73;10.43;;;2.90;99.90;;;;;;5017411;28;20140;-67
2024/01/06 09:23:01;;;;;;;17.88;10.75;;;2.90;99.90;;;;;;5016436;28;20037;-65
2024/01/06 09:25:26;;;;;;;15.40;9.40;;;2.90;99.90;;;;;;5033967;28;20099;-66
2024/01/06 09:27:53;;;;;;;15.50;10.00;;;2.90;99.90;;;;;;5033986;28;20466;-65
2024/01/06 09:30:18;;;;;;;16.63;10.93;;;2.90;99.90;;;;;;5026620;28;20124;-66
2024/01/06 09:32:44;;;;;;;19.35;10.70;;;2.90;99.90;;;;;;5018065;28;20128;-66
2024/01/06 09:35:10;;;;;;;16.42;11.20;;;2.90;99.90;;;;;;5014612;28;20042;-66
2024/01/06 09:37:36;;;;;;;17.75;9.45;;;2.90;99.90;;;;;;5016960;28;20037;-66
2024/01/06 09:40:02;;;;;;;16.27;9.88;;;2.90;99.90;;;;;;5030746;28;20375;-65
2024/01/06 09:42:28;;;;;;;16.73;9.63;;;2.90;99.90;;;;;;5031334;28;20041;-66
2024/01/06 09:44:54;;;;;;;17.30;10.55;;;2.90;99.90;;;;;;5013280;28;20495;-65
2024/01/06 09:47:22;;;;;;;16.38;11.05;;;2.90;99.90;;;;;;5030301;28;20053;-66
2024/01/06 09:49:49;;;;;;;14.52;8.02;;;2.90;99.90;;;;;;5031631;28;20456;-65
2024/01/06 09:52:20;;;;;;;14.82;9.80;;;2.90;99.90;;;;;;5013182;28;20048;-66
2024/01/06 09:54:51;;;;;;;14.50;8.43;;;2.90;99.90;;;;;;4997418;28;20045;-66
2024/01/06 09:57:17;;;;;;;27.23;18.77;;;2.90;99.90;;;;;;5013987;28;20041;-65
2024/01/06 09:59:47;;;;;;;22.23;15.48;;;2.90;99.90;;;;;;5013087;28;20033;-65
2024/01/06 10:02:16;;;;;;;16.77;10.18;;;2.90;99.90;;;;;;5013410;28;20631;-65
2024/01/06 10:04:45;;;;;;;15.55;10.93;;;2.90;99.90;;;;;;5007628;28;20057;-65
2024/01/06 10:07:13;;;;;;;14.77;8.25;;;2.90;99.90;;;;;;4993282;28;20049;-65
2024/01/06 10:09:42;;;;;;;17.63;10.57;;;2.90;99.90;;;;;;4993919;28;20086;-65
2024/01/06 10:12:09;;;;;;;14.50;9.13;;;2.90;99.90;;;;;;4977457;28;20050;-65
2024/01/06 10:14:35;;;;;;;13.45;7.47;;;2.90;99.90;;;;;;4993799;28;20038;-65
2024/01/06 10:17:01;;;;;;;16.35;8.30;;;2.90;99.90;;;;;;4994222;28;20056;-65
2024/01/06 10:19:27;;;;;;;16.55;9.60;;;2.90;99.90;;;;;;4993292;28;20117;-65
2024/01/06 10:21:53;;;;;;;16.23;9.70;;;2.90;99.90;;;;;;4993854;28;20064;-65
2024/01/06 10:24:18;;;;;;;24.80;13.73;;;2.80;99.90;;;;;;4993946;28;20115;-65
2024/01/06 10:26:47;;;;;;;16.00;8.48;;;2.90;99.90;;;;;;4993296;28;20505;-65
2024/01/06 10:29:13;;;;;;;22.90;14.00;;;2.80;99.90;;;;;;4977482;28;20104;-66
2024/01/06 10:31:40;;;;;;;17.95;9.93;;;2.80;99.90;;;;;;4977186;28;20041;-65
2024/01/06 10:34:06;;;;;;;21.48;10.18;;;2.80;99.90;;;;;;5009752;28;20046;-65
2024/01/06 10:36:32;;;;;;;16.75;8.45;;;2.80;99.90;;;;;;4993236;28;20045;-65
2024/01/06 10:38:58;;;;;;;15.60;9.15;;;2.80;99.90;;;;;;4993952;28;20145;-65
2024/01/06 10:41:25;;;;;;;17.52;9.38;;;2.80;99.90;;;;;;4976927;28;20446;-65
2024/01/06 10:43:51;;;;;;;17.27;12.27;;;2.80;99.90;;;;;;4993311;28;20499;-65
2024/01/06 10:46:19;;;;;;;15.02;9.52;;;2.80;99.90;;;;;;5011269;28;20380;-65
2024/01/06 10:48:46;;;;;;;18.65;11.07;;;2.80;99.90;;;;;;5009532;28;20415;-65
2024/01/06 10:51:13;;;;;;;18.52;8.90;;;2.80;99.90;;;;;;4997100;28;20507;-65
2024/01/06 10:53:43;;;;;;;12.57;8.15;;;2.80;99.90;;;;;;5013507;28;20060;-65
2024/01/06 10:56:12;;;;;;;14.80;7.95;;;2.80;99.90;;;;;;4980278;28;20041;-65
2024/01/06 10:58:45;;;;;;;12.35;8.43;;;2.80;99.90;;;;;;4996960;28;20125;-65
2024/01/06 11:01:11;;;;;;;22.50;13.40;;;2.80;99.90;;;;;;5014506;28;20048;-66
2024/01/06 11:03:38;;;;;;;17.20;12.75;;;2.80;99.90;;;;;;4996375;28;20050;-66
2024/01/06 11:06:06;;;;;;;16.05;8.50;;;2.80;99.90;;;;;;5029824;28;20422;-66
2024/01/06 11:08:35;;;;;;;13.07;7.70;;;2.80;99.90;;;;;;5015448;28;20045;-65
2024/01/06 11:11:02;;;;;;;12.40;7.43;;;2.80;99.90;;;;;;5034439;28;20367;-65
2024/01/06 11:13:28;;;;;;;13.88;7.25;;;2.80;99.90;;;;;;5016030;28;20099;-65
2024/01/06 11:15:54;;;;;;;16.15;9.35;;;2.80;99.90;;;;;;5015691;28;20046;-65
2024/01/06 11:18:37;;;;;;;13.52;7.57;;;2.80;99.90;;;;;;5016235;28;20095;-65
2024/01/06 11:21:25;;;;;;;13.40;8.68;;;2.80;99.90;;;;;;5016581;28;20034;-65
2024/01/06 11:24:24;;;;;;;10.80;7.70;;;2.70;99.90;;;;;;5015570;28;20128;-65
2024/01/06 11:26:52;;;;;;;12.52;7.45;;;2.80;99.90;;;;;;5023174;28;20041;-66
2024/01/06 11:29:19;;;;;;;11.13;6.28;;;2.70;99.90;;;;;;5035281;28;20122;-66
2024/01/06 11:32:21;;;;;;;11.23;6.80;;;2.70;99.90;;;;;;5017000;28;20033;-65
2024/01/06 11:34:52;;;;;;;10.07;5.05;;;2.70;99.90;;;;;;5028803;28;20352;-66
2024/01/06 11:37:24;;;;;;;11.25;6.55;;;2.70;99.90;;;;;;5024377;28;20076;-66
2024/01/06 11:39:50;;;;;;;10.65;6.05;;;2.70;99.90;;;;;;5032803;28;20333;-66
2024/01/06 11:42:16;;;;;;;10.73;6.35;;;2.70;99.90;;;;;;5027355;28;20029;-66
2024/01/06 11:44:49;;;;;;;11.23;6.05;;;2.70;99.90;;;;;;5028601;28;20441;-66
2024/01/06 11:47:17;;;;;;;10.27;5.65;;;2.70;99.90;;;;;;5013177;28;20045;-66
2024/01/06 11:49:45;;;;;;;12.77;6.47;;;2.70;99.90;;;;;;5022200;28;20525;-66
2024/01/06 11:52:12;;;;;;;11.52;6.45;;;2.70;99.90;;;;;;5031234;28;20497;-66
2024/01/06 11:54:38;;;;;;;9.90;5.93;;;2.70;99.90;;;;;;5018344;28;20053;-65
2024/01/06 11:57:04;;;;;;;10.23;5.07;;;2.70;99.90;;;;;;5035039;28;20433;-66
2024/01/06 11:59:30;;;;;;;11.43;5.75;;;2.70;99.90;;;;;;5051137;28;20036;-66
2024/01/06 12:01:55;;;;;;;9.15;5.55;;;2.70;99.90;;;;;;5036649;28;20041;-66
2024/01/06 12:04:22;;;;;;;11.18;6.68;;;2.70;99.90;;;;;;5052048;28;20069;-66
2024/01/06 12:06:48;;;;;;;13.10;7.53;;;2.70;99.90;;;;;;5023719;28;20045;-66
2024/01/06 12:09:16;;;;;;;12.32;7.38;;;2.70;99.90;;;;;;5042083;28;20419;-66
2024/01/06 12:11:45;;;;;;;11.98;6.80;;;2.70;99.90;;;;;;5020407;28;20076;-66
2024/01/06 12:14:10;;;;;;;12.15;6.88;;;2.80;99.90;;;;;;5020750;28;20053;-66
2024/01/06 12:16:36;;;;;;;10.20;5.88;;;2.80;99.90;;;;;;5032035;28;20047;-66
2024/01/06 12:19:03;;;;;;;12.90;6.22;;;2.80;99.90;;;;;;5016961;28;20042;-66
2024/01/06 12:21:30;;;;;;;11.38;6.57;;;2.80;99.90;;;;;;5012322;28;20041;-66
2024/01/06 12:24:15;;;;;;;11.82;7.28;;;2.80;99.90;;;;;;5028545;28;20502;-66
2024/01/06 12:26:44;;;;;;;14.40;8.30;;;2.80;99.90;;;;;;5011123;28;20064;-66
2024/01/06 12:29:11;;;;;;;10.60;6.97;;;2.70;99.90;;;;;;5027069;28;20053;-66
2024/01/06 12:31:38;;;;;;;10.50;6.47;;;2.70;99.90;;;;;;5029805;28;20490;-66
2024/01/06 12:34:04;;;;;;;10.55;6.18;;;2.70;99.90;;;;;;5020551;28;20058;-66
2024/01/06 12:36:30;;;;;;;11.45;7.05;;;2.60;99.90;;;;;;5029819;28;20033;-66
2024/01/06 12:38:58;;;;;;;12.13;8.80;;;2.70;99.90;;;;;;5030953;28;20051;-66
2024/01/06 12:41:24;;;;;;;11.55;7.05;;;2.70;99.90;;;;;;5030317;28;20071;-66